Time;durP1;ratioP1;P1;durP2;ratioP2;P2;SDS_P1;SDS_P2;PMS_P1;PMS_P2;Temp;Humidity;BMP_temperature;BMP_pressure;BME280_temperature;BME280_humidity;BME280_pressure;Samples;Min_cycle;Max_cycle;Signal;HPM_P1;HPM_P2
2023/01/19 00:01:11;;;;;;;23.92;5.70;;;;;;;14.06;100.00;99609.66;5052023;28;20055;-70
2023/01/19 00:03:36;;;;;;;33.55;6.30;;;;;;;13.98;100.00;99601.53;5050888;28;20506;-69
2023/01/19 00:06:06;;;;;;;29.40;5.72;;;;;;;14.01;100.00;99602.19;5052375;28;20032;-69
2023/01/19 00:08:31;;;;;;;27.15;5.53;;;;;;;14.10;100.00;99601.78;5051285;28;20047;-69
2023/01/19 00:10:57;;;;;;;31.88;6.15;;;;;;;14.15;100.00;99604.09;5050954;28;20033;-70
2023/01/19 00:13:22;;;;;;;30.58;6.70;;;;;;;13.71;100.00;99542.31;5052121;28;20045;-69
2023/01/19 00:15:48;;;;;;;26.25;5.82;;;;;;;13.55;100.00;99516.69;5052153;28;20036;-70
2023/01/19 00:18:13;;;;;;;40.95;7.10;;;;;;;14.01;100.00;99616.69;5052820;28;20470;-69
2023/01/19 00:20:39;;;;;;;32.45;6.30;;;;;;;13.71;100.00;99558.50;5051840;28;20041;-70
2023/01/19 00:23:06;;;;;;;33.65;6.10;;;;;;;14.05;100.00;99633.53;5052344;28;20074;-69
2023/01/19 00:25:32;;;;;;;28.67;5.72;;;;;;;13.95;100.00;99612.72;5052048;28;20036;-70
2023/01/19 00:27:58;;;;;;;30.73;6.28;;;;;;;14.14;100.00;99623.72;5051728;28;20020;-70
2023/01/19 00:30:24;;;;;;;24.95;6.13;;;;;;;13.99;100.00;99629.56;5051939;28;20078;-70
2023/01/19 00:32:49;;;;;;;34.17;5.93;;;;;;;14.03;100.00;99625.13;5051738;28;20037;-69
2023/01/19 00:35:15;;;;;;;26.88;5.50;;;;;;;13.93;100.00;99610.22;5052117;28;20348;-70
2023/01/19 00:37:44;;;;;;;29.95;5.78;;;;;;;13.98;100.00;99637.31;5051053;28;20419;-70
2023/01/19 00:40:11;;;;;;;28.67;6.00;;;;;;;13.88;100.00;99640.28;5052083;28;20056;-70
2023/01/19 00:42:39;;;;;;;32.42;6.05;;;;;;;13.74;100.00;99604.34;5051228;28;20035;-70
2023/01/19 00:45:07;;;;;;;35.72;6.63;;;;;;;13.59;100.00;99574.38;5051901;28;20060;-69
2023/01/19 00:47:32;;;;;;;26.67;5.82;;;;;;;13.75;100.00;99612.81;5049575;28;20095;-72
2023/01/19 00:49:58;;;;;;;24.63;5.40;;;;;;;14.06;100.00;99664.16;5050099;28;20037;-72
2023/01/19 00:52:23;;;;;;;32.08;6.00;;;;;;;14.00;100.00;99655.94;5051484;28;20025;-69
2023/01/19 00:54:49;;;;;;;32.45;6.30;;;;;;;13.89;100.00;99643.66;5049104;28;20080;-70
2023/01/19 00:57:15;;;;;;;30.90;6.35;;;;;;;13.81;100.00;99651.69;5051359;28;20057;-69
2023/01/19 00:59:40;;;;;;;30.05;5.65;;;;;;;13.67;100.00;99636.16;5049819;28;20039;-70
2023/01/19 01:02:06;;;;;;;29.45;5.53;;;;;;;13.62;100.00;99625.34;5049844;28;20112;-70
2023/01/19 01:04:31;;;;;;;29.42;5.75;;;;;;;13.62;100.00;99647.50;5049286;28;20052;-70
2023/01/19 01:06:57;;;;;;;30.35;6.35;;;;;;;13.27;100.00;99603.13;5050177;28;20041;-68
2023/01/19 01:09:23;;;;;;;28.80;5.80;;;;;;;13.55;100.00;99654.59;5048797;28;20025;-70
2023/01/19 01:11:48;;;;;;;31.55;5.65;;;;;;;13.57;100.00;99682.63;5048964;28;20032;-70
2023/01/19 01:14:14;;;;;;;33.78;6.07;;;;;;;13.46;100.00;99659.31;5050760;28;20037;-70
2023/01/19 01:16:40;;;;;;;28.55;6.03;;;;;;;13.35;100.00;99639.34;5050495;28;20044;-70
2023/01/19 01:19:05;;;;;;;27.88;6.18;;;;;;;13.65;100.00;99671.19;5050194;28;20025;-70
2023/01/19 01:21:33;;;;;;;33.83;7.03;;;;;;;13.00;100.00;99571.97;5050992;28;20089;-70
2023/01/19 01:23:58;;;;;;;27.20;5.80;;;;;;;13.52;100.00;99675.19;5048587;28;20122;-70
2023/01/19 01:26:24;;;;;;;31.95;6.28;;;;;;;13.25;100.00;99671.28;5050318;28;20083;-70
2023/01/19 01:28:49;;;;;;;32.50;6.05;;;;;;;13.09;100.00;99669.47;5050276;28;20162;-70
2023/01/19 01:31:15;;;;;;;31.17;5.97;;;;;;;12.96;100.00;99641.91;5050590;28;20557;-70
2023/01/19 01:33:40;;;;;;;29.33;6.20;;;;;;;12.63;100.00;99605.09;5048924;28;20431;-70
2023/01/19 01:36:06;;;;;;;31.63;6.28;;;;;;;13.11;100.00;99688.94;5049960;28;20492;-73
2023/01/19 01:38:32;;;;;;;30.05;6.50;;;;;;;13.04;100.00;99654.34;5050223;28;20153;-72
2023/01/19 01:40:57;;;;;;;28.52;6.53;;;;;;;13.19;100.00;99675.84;5048095;28;20102;-70
2023/01/19 01:43:22;;;;;;;32.28;7.00;;;;;;;13.09;100.00;99675.44;5048907;28;20039;-70
2023/01/19 01:45:48;;;;;;;31.42;6.47;;;;;;;13.12;100.00;99671.88;5050154;28;20040;-70
2023/01/19 01:48:27;;;;;;;27.63;7.07;;;;;;;12.85;100.00;99674.72;5049625;28;20489;-70
2023/01/19 01:53:46;;;;;;;38.70;6.63;;;;;;;13.01;100.00;99690.19;5050514;28;20039;-70
2023/01/19 01:56:18;;;;;;;32.85;6.80;;;;;;;12.84;100.00;99695.16;5050825;28;20029;-70
2023/01/19 01:58:50;;;;;;;29.33;6.28;;;;;;;12.94;100.00;99676.88;5050762;28;20527;-70
2023/01/19 02:03:59;;;;;;;31.45;6.00;;;;;;;13.38;100.00;99656.25;5050013;28;20052;-69
2023/01/19 02:06:25;;;;;;;31.50;5.90;;;;;;;13.52;100.00;99669.25;5049059;28;20423;-70
2023/01/19 02:14:30;;;;;;;34.85;6.20;;;;;;;13.81;100.00;99667.03;5050451;28;20124;-70
2023/01/19 02:16:56;;;;;;;30.40;6.07;;;;;;;13.52;100.00;99602.84;5049989;28;20119;-70
2023/01/19 02:19:28;;;;;;;38.50;6.10;;;;;;;13.81;100.00;99678.97;5050651;28;20040;-70
2023/01/19 02:22:05;;;;;;;29.52;5.90;;;;;;;13.78;100.00;99672.28;5050330;28;20036;-70
2023/01/19 02:24:32;;;;;;;38.78;6.35;;;;;;;13.69;100.00;99669.31;5050297;28;20094;-70
2023/01/19 02:26:59;;;;;;;34.20;6.03;;;;;;;13.87;100.00;99660.78;5050171;28;20041;-70
2023/01/19 02:29:26;;;;;;;32.50;5.88;;;;;;;13.39;100.00;99599.22;5050037;28;20025;-71
2023/01/19 02:31:54;;;;;;;32.65;6.10;;;;;;;13.41;100.00;99607.63;5048982;28;20496;-69
2023/01/19 02:34:21;;;;;;;43.95;15.45;;;;;;;13.90;100.00;99678.56;5050922;28;20021;-69
2023/01/19 02:37:05;;;;;;;43.78;13.40;;;;;;;13.47;100.00;99615.81;5054702;28;20029;-70
2023/01/19 02:39:37;;;;;;;56.38;16.02;;;;;;;13.13;100.00;99535.75;5054221;28;20043;-69
2023/01/19 02:42:08;;;;;;;43.53;9.80;;;;;;;13.86;100.00;99657.41;5053975;28;20131;-70
2023/01/19 02:44:35;;;;;;;35.53;6.90;;;;;;;13.65;100.00;99609.03;5052840;28;20471;-69
2023/01/19 02:47:02;;;;;;;40.35;6.57;;;;;;;13.84;100.00;99666.06;5054332;28;20037;-69
2023/01/19 02:49:31;;;;;;;34.47;6.93;;;;;;;13.87;100.00;99676.13;5052474;28;20029;-70
2023/01/19 02:51:57;;;;;;;36.88;7.10;;;;;;;13.82;100.00;99684.03;5053537;28;20032;-69
2023/01/19 02:54:32;;;;;;;38.33;7.60;;;;;;;13.92;100.00;99682.69;5051843;28;20033;-69
2023/01/19 02:57:00;;;;;;;36.20;7.20;;;;;;;13.86;100.00;99685.50;5052275;28;20028;-69
2023/01/19 02:59:36;;;;;;;38.13;6.97;;;;;;;13.58;100.00;99704.72;5053664;28;20056;-69
2023/01/19 03:02:29;;;;;;;38.95;6.43;;;;;;;13.64;100.00;99695.06;5044906;28;20037;-70
2023/01/19 03:05:09;;;;;;;36.85;6.78;;;;;;;13.69;100.00;99702.50;5033508;28;20057;-69
2023/01/19 03:07:51;;;;;;;36.67;7.40;;;;;;;13.71;100.00;99700.72;5032146;28;20087;-70
2023/01/19 03:10:21;;;;;;;31.92;6.00;;;;;;;13.67;100.00;99684.72;5033104;28;20044;-70
2023/01/19 03:12:56;;;;;;;33.10;6.57;;;;;;;13.81;100.00;99692.56;5033232;28;20041;-69
2023/01/19 03:15:31;;;;;;;40.42;7.30;;;;;;;13.86;100.00;99705.97;5033325;28;20168;-70
2023/01/19 03:18:01;;;;;;;32.38;6.75;;;;;;;13.83;100.00;99701.00;5031191;28;20056;-70
2023/01/19 03:20:27;;;;;;;42.15;7.18;;;;;;;13.51;100.00;99649.72;5046166;28;20025;-69
2023/01/19 03:23:05;;;;;;;30.50;6.70;;;;;;;13.36;100.00;99640.19;5051535;28;20060;-70
2023/01/19 03:25:36;;;;;;;30.60;6.40;;;;;;;13.99;100.00;99710.50;5052050;28;20064;-69
2023/01/19 03:28:03;;;;;;;36.77;5.80;;;;;;;13.67;100.00;99694.94;5052797;28;20025;-69
2023/01/19 03:30:33;;;;;;;30.08;6.47;;;;;;;13.34;100.00;99647.09;5049109;28;20493;-69
2023/01/19 03:33:06;;;;;;;35.40;6.53;;;;;;;13.16;100.00;99637.69;5032911;28;20051;-69
2023/01/19 03:35:35;;;;;;;36.15;5.85;;;;;;;13.52;100.00;99687.97;5030998;28;20029;-70
2023/01/19 03:38:07;;;;;;;39.60;6.57;;;;;;;13.80;100.00;99711.38;5032642;28;20036;-70
2023/01/19 03:40:35;;;;;;;41.40;6.15;;;;;;;13.56;100.00;99689.47;5076356;28;20044;-69
2023/01/19 03:43:04;;;;;;;41.88;6.22;;;;;;;13.79;100.00;99719.09;5052125;28;20052;-69
2023/01/19 03:45:32;;;;;;;34.53;6.45;;;;;;;13.25;100.00;99662.81;5051053;28;20102;-70
2023/01/19 03:47:58;;;;;;;31.80;6.00;;;;;;;13.52;100.00;99666.69;5051615;28;20040;-70
2023/01/19 03:50:27;;;;;;;37.22;6.55;;;;;;;13.86;100.00;99730.69;5051227;28;20047;-68
2023/01/19 03:53:08;;;;;;;37.50;7.05;;;;;;;13.22;100.00;99655.28;5052293;28;20573;-69
2023/01/19 03:55:34;;;;;;;34.97;7.00;;;;;;;13.63;100.00;99730.88;5051229;28;20033;-69
2023/01/19 03:58:00;;;;;;;35.53;6.57;;;;;;;13.51;100.00;99726.34;5052861;28;20044;-68
2023/01/19 04:00:26;;;;;;;32.00;6.40;;;;;;;13.47;100.00;99669.44;5052117;28;20036;-70
2023/01/19 04:02:51;;;;;;;36.97;6.13;;;;;;;13.75;100.00;99692.03;5050654;28;20059;-69
2023/01/19 04:05:17;;;;;;;39.97;6.38;;;;;;;13.65;100.00;99713.75;5052572;28;20521;-72
2023/01/19 04:07:43;;;;;;;39.47;6.93;;;;;;;13.82;100.00;99731.75;5052710;28;20045;-68
2023/01/19 04:10:12;;;;;;;39.78;7.32;;;;;;;13.79;100.00;99740.38;5051881;28;20052;-68
2023/01/19 04:12:38;;;;;;;33.38;6.68;;;;;;;13.42;100.00;99681.59;5050915;28;20039;-68
2023/01/19 04:15:05;;;;;;;34.42;7.00;;;;;;;13.55;100.00;99745.72;5052162;28;20025;-68
2023/01/19 04:17:31;;;;;;;37.20;6.93;;;;;;;13.53;100.00;99735.56;5052411;28;20057;-69
2023/01/19 04:19:56;;;;;;;35.25;6.30;;;;;;;13.50;100.00;99738.28;5050228;28;20578;-73
2023/01/19 04:22:22;;;;;;;39.42;7.00;;;;;;;13.68;100.00;99742.59;5051819;28;20033;-68
2023/01/19 04:24:47;;;;;;;39.22;6.90;;;;;;;13.62;100.00;99730.06;5050428;28;20419;-70
2023/01/19 04:27:15;;;;;;;40.83;6.82;;;;;;;13.28;100.00;99662.66;5050429;28;20032;-69
2023/01/19 04:29:40;;;;;;;33.95;6.57;;;;;;;13.82;100.00;99750.47;5050185;28;20031;-70
2023/01/19 04:32:06;;;;;;;38.38;7.00;;;;;;;13.27;100.00;99653.38;5048859;28;20028;-69
2023/01/19 04:34:31;;;;;;;37.83;6.53;;;;;;;13.67;100.00;99745.19;5052005;28;20116;-68
2023/01/19 04:36:57;;;;;;;35.63;7.63;;;;;;;13.31;100.00;99681.22;5052087;28;20028;-68
2023/01/19 04:39:22;;;;;;;36.75;7.03;;;;;;;13.84;100.00;99746.09;5051800;28;20119;-68
2023/01/19 04:41:48;;;;;;;45.55;7.75;;;;;;;13.71;100.00;99716.03;5050805;28;20453;-69
2023/01/19 04:44:13;;;;;;;38.15;6.65;;;;;;;13.80;100.00;99744.59;5051376;28;20033;-69
2023/01/19 04:46:39;;;;;;;41.90;6.95;;;;;;;13.40;100.00;99688.50;5051598;28;20550;-69
2023/01/19 04:49:05;;;;;;;38.90;6.93;;;;;;;13.53;100.00;99704.94;5050556;28;20480;-69
2023/01/19 04:51:31;;;;;;;39.33;7.68;;;;;;;13.79;100.00;99735.25;5047627;28;20112;-68
2023/01/19 04:53:56;;;;;;;41.05;7.45;;;;;;;13.77;100.00;99737.06;5049232;28;20119;-68
2023/01/19 04:56:22;;;;;;;42.78;7.32;;;;;;;13.90;100.00;99739.88;5049667;28;20155;-69
2023/01/19 04:58:47;;;;;;;37.05;6.15;;;;;;;13.88;100.00;99727.16;5050537;28;20021;-69
2023/01/19 05:01:13;;;;;;;36.22;6.80;;;;;;;13.90;100.00;99716.88;5049257;28;20044;-68
2023/01/19 05:03:39;;;;;;;35.17;6.85;;;;;;;13.96;100.00;99738.78;5034098;28;20057;-69
2023/01/19 05:06:05;;;;;;;34.28;6.43;;;;;;;13.57;100.00;99680.06;5031497;28;20017;-68
2023/01/19 05:08:30;;;;;;;33.58;6.78;;;;;;;13.89;100.00;99740.78;5041490;28;20420;-68
2023/01/19 05:10:56;;;;;;;30.85;6.85;;;;;;;13.67;100.00;99673.66;5048039;28;20025;-67
2023/01/19 05:13:22;;;;;;;37.47;6.68;;;;;;;14.08;100.00;99735.66;5050499;28;20491;-69
2023/01/19 05:15:47;;;;;;;36.20;7.18;;;;;;;13.60;100.00;99652.69;5051267;28;20033;-68
2023/01/19 05:18:13;;;;;;;40.17;6.90;;;;;;;14.03;100.00;99710.31;5051382;28;20031;-67
2023/01/19 05:20:39;;;;;;;44.28;7.20;;;;;;;14.12;100.00;99744.84;5050797;28;20068;-67
2023/01/19 05:23:04;;;;;;;39.45;7.28;;;;;;;14.03;100.00;99728.19;5051266;28;20029;-67
2023/01/19 05:25:29;;;;;;;44.97;7.78;;;;;;;14.13;100.00;99752.44;5049477;28;20024;-67
2023/01/19 05:27:55;;;;;;;36.28;7.18;;;;;;;13.69;100.00;99679.53;5051146;28;20434;-68
2023/01/19 05:30:20;;;;;;;38.15;6.97;;;;;;;13.70;100.00;99704.19;5049358;28;20035;-67
2023/01/19 05:32:46;;;;;;;43.42;7.15;;;;;;;13.84;100.00;99705.19;5049175;28;20029;-67
2023/01/19 05:35:12;;;;;;;39.20;7.18;;;;;;;14.10;100.00;99749.19;5049530;28;20028;-67
2023/01/19 05:37:38;;;;;;;36.33;6.97;;;;;;;13.79;100.00;99686.69;5049305;28;20063;-67
2023/01/19 05:40:04;;;;;;;41.92;6.43;;;;;;;14.12;100.00;99760.19;5049659;28;20029;-67
2023/01/19 05:42:29;;;;;;;46.10;8.23;;;;;;;13.72;100.00;99693.00;5039819;28;20060;-65
2023/01/19 05:44:55;;;;;;;39.70;8.52;;;;;;;14.01;100.00;99744.50;5030292;28;20535;-66
2023/01/19 05:47:20;;;;;;;38.17;7.93;;;;;;;14.07;100.00;99757.84;5040828;28;20033;-66
2023/01/19 05:49:47;;;;;;;35.55;7.57;;;;;;;14.06;100.00;99751.06;5048562;28;20491;-67
2023/01/19 05:52:12;;;;;;;53.10;10.10;;;;;;;13.95;100.00;99758.38;5047099;28;20111;-67
2023/01/19 05:54:39;;;;;;;40.30;7.35;;;;;;;13.60;100.00;99679.94;5050279;28;20033;-66
2023/01/19 05:57:05;;;;;;;37.85;6.95;;;;;;;14.03;100.00;99769.09;5045524;28;20030;-66
2023/01/19 05:59:30;;;;;;;36.55;5.90;;;;;;;14.10;100.00;99750.03;5049858;28;20032;-65
2023/01/19 06:01:56;;;;;;;33.25;6.80;;;;;;;14.08;100.00;99738.22;5049869;28;20090;-66
2023/01/19 06:04:21;;;;;;;40.45;7.60;;;;;;;13.79;100.00;99693.53;5043117;28;20454;-66
2023/01/19 06:06:47;;;;;;;33.25;6.05;;;;;;;14.10;100.00;99774.78;5045739;28;20115;-66
2023/01/19 06:09:13;;;;;;;42.17;7.45;;;;;;;14.11;100.00;99755.97;5049632;28;20032;-66
2023/01/19 06:11:38;;;;;;;35.70;7.47;;;;;;;13.66;100.00;99702.66;5049285;28;20037;-67
2023/01/19 06:14:04;;;;;;;37.35;6.47;;;;;;;13.67;100.00;99700.03;5049102;28;20033;-70
2023/01/19 06:16:30;;;;;;;45.35;8.05;;;;;;;14.24;100.00;99773.22;5047818;28;20127;-68
2023/01/19 06:18:55;;;;;;;39.28;6.53;;;;;;;13.79;100.00;99716.53;5050088;28;20419;-69
2023/01/19 06:21:20;;;;;;;32.70;6.70;;;;;;;13.51;100.00;99667.59;5050268;28;20025;-69
2023/01/19 06:23:46;;;;;;;27.50;6.88;;;;;;;14.21;100.00;99793.00;5048278;28;20032;-73
2023/01/19 06:26:12;;;;;;;37.45;7.70;;;;;;;14.15;100.00;99794.09;5048579;28;20938;-69
2023/01/19 06:28:37;;;;;;;32.58;7.30;;;;;;;13.75;100.00;99726.06;5045598;28;20099;-70
2023/01/19 06:31:03;;;;;;;35.08;6.88;;;;;;;14.40;100.00;99811.75;5039314;28;20462;-69
2023/01/19 06:33:29;;;;;;;36.75;7.03;;;;;;;14.49;100.00;99827.50;5034767;28;20035;-70
2023/01/19 06:35:55;;;;;;;37.88;7.10;;;;;;;14.30;100.00;99756.81;5048341;28;20037;-69
2023/01/19 06:38:21;;;;;;;42.13;7.72;;;;;;;14.97;100.00;99813.28;5048788;28;20467;-69
2023/01/19 06:41:01;;;;;;;38.75;7.22;;;;;;;15.12;100.00;99845.81;5048409;28;20120;-68
2023/01/19 06:43:27;;;;;;;34.78;6.70;;;;;;;14.85;100.00;99760.97;5046944;28;20499;-69
2023/01/19 06:45:53;;;;;;;36.67;7.20;;;;;;;15.26;100.00;99817.78;5028789;28;20037;-69
2023/01/19 06:48:19;;;;;;;36.35;6.68;;;;;;;14.91;100.00;99770.91;5049225;28;20033;-69
2023/01/19 06:50:46;;;;;;;38.50;7.07;;;;;;;15.25;100.00;99763.16;5043927;28;20030;-68
2023/01/19 06:53:12;;;;;;;40.42;7.72;;;;;;;16.00;100.00;99840.47;5039999;28;20040;-69
2023/01/19 06:55:38;;;;;;;35.15;7.07;;;;;;;15.86;100.00;99831.84;5047458;28;20116;-69
2023/01/19 06:58:03;;;;;;;41.15;7.93;;;;;;;16.28;100.00;99827.00;5048342;28;20025;-69
2023/01/19 07:00:29;;;;;;;44.83;8.50;;;;;;;16.39;100.00;99807.56;5049692;28;20039;-70
2023/01/19 07:02:55;;;;;;;44.13;7.97;;;;;;;16.48;100.00;99808.78;5049210;28;20132;-69
2023/01/19 07:05:21;;;;;;;32.80;7.80;;;;;;;16.32;100.00;99810.56;5042897;28;20103;-69
2023/01/19 07:07:54;;;;;;;37.40;7.55;;;;;;;16.69;100.00;99815.34;5041913;28;20074;-70
2023/01/19 07:10:20;;;;;;;37.35;6.90;;;;;;;16.51;100.00;99748.78;5037605;28;20064;-70
2023/01/19 07:12:46;;;;;;;39.28;7.25;;;;;;;16.92;100.00;99808.91;5029258;28;20103;-69
2023/01/19 07:15:13;;;;;;;42.30;7.50;;;;;;;16.99;100.00;99826.47;5029232;28;20503;-70
2023/01/19 07:17:40;;;;;;;46.42;7.57;;;;;;;17.08;100.00;99794.28;5029813;28;20033;-70
2023/01/19 07:20:11;;;;;;;38.53;7.70;;;;;;;17.17;100.00;99820.25;5041576;28;20040;-69
2023/01/19 07:22:38;;;;;;;38.63;6.97;;;;;;;15.96;100.00;99727.88;5051883;28;20116;-70
2023/01/19 07:25:04;;;;;;;42.75;6.93;;;;;;;15.68;100.00;99741.34;5053053;28;20511;-69
2023/01/19 07:27:30;;;;;;;37.17;7.38;;;;;;;15.97;100.00;99786.78;5051820;28;20025;-70
2023/01/19 07:29:55;;;;;;;36.85;7.18;;;;;;;15.87;100.00;99762.53;5051474;28;20033;-72
2023/01/19 07:32:21;;;;;;;35.72;7.13;;;;;;;16.00;100.00;99804.56;5051197;28;20036;-68
2023/01/19 07:34:46;;;;;;;37.58;6.78;;;;;;;15.96;100.00;99795.38;5051146;28;20123;-67
2023/01/19 07:37:12;;;;;;;37.95;7.00;;;;;;;15.92;100.00;99775.94;5050840;28;20376;-68
2023/01/19 07:39:37;;;;;;;38.28;7.43;;;;;;;15.91;100.00;99776.84;5050676;28;20055;-69
2023/01/19 07:42:03;;;;;;;40.15;6.97;;;;;;;16.21;100.00;99825.66;5051509;28;20482;-68
2023/01/19 07:44:28;;;;;;;39.45;7.60;;;;;;;16.11;100.00;99788.59;5031309;28;20037;-68
2023/01/19 07:46:54;;;;;;;42.88;6.97;;;;;;;16.39;100.00;99855.47;5031334;28;20083;-69
2023/01/19 07:49:23;;;;;;;35.10;7.22;;;;;;;16.13;100.00;99795.31;5042714;28;20128;-70
2023/01/19 07:51:48;;;;;;;34.22;6.68;;;;;;;16.17;100.00;99801.94;5042585;28;20033;-70
2023/01/19 07:54:14;;;;;;;42.72;7.20;;;;;;;16.02;100.00;99764.28;5037910;28;20055;-70
2023/01/19 07:56:39;;;;;;;39.38;7.20;;;;;;;16.64;100.00;99852.47;5041412;28;20116;-68
2023/01/19 07:59:08;;;;;;;46.22;7.03;;;;;;;16.76;100.00;99859.47;5046895;28;20067;-69
2023/01/19 08:01:34;;;;;;;43.50;6.68;;;;;;;16.74;100.00;99866.44;5051140;28;20036;-69
2023/01/19 08:03:59;;;;;;;44.97;8.25;;;;;;;16.41;100.00;99807.47;5052090;28;20037;-69
2023/01/19 08:06:31;;;;;;;38.38;7.10;;;;;;;16.87;100.00;99868.25;5050581;28;20033;-69
2023/01/19 08:08:56;;;;;;;37.28;6.38;;;;;;;16.78;100.00;99857.63;5052427;28;20036;-69
2023/01/19 08:11:22;;;;;;;41.95;7.35;;;;;;;16.84;100.00;99883.81;5051820;28;20028;-69
2023/01/19 08:13:47;;;;;;;41.35;6.82;;;;;;;16.90;100.00;99862.94;5047616;28;20029;-69
2023/01/19 08:16:12;;;;;;;45.47;6.55;;;;;;;17.06;100.00;99888.59;5036108;28;20037;-68
2023/01/19 08:18:38;;;;;;;41.45;6.72;;;;;;;16.95;100.00;99870.38;5031498;28;20114;-69
2023/01/19 08:21:04;;;;;;;30.95;5.88;;;;;;;17.24;100.00;99890.13;5031787;28;20029;-70
2023/01/19 08:23:29;;;;;;;34.15;6.43;;;;;;;16.91;100.00;99850.94;5047615;28;20036;-69
2023/01/19 08:25:54;;;;;;;31.15;6.45;;;;;;;16.93;100.00;99846.53;5050689;28;20051;-69
2023/01/19 08:28:20;;;;;;;34.13;6.22;;;;;;;17.30;100.00;99918.88;5050171;28;20021;-69
2023/01/19 08:30:52;;;;;;;29.05;5.72;;;;;;;17.20;100.00;99925.44;5049865;28;20043;-69
2023/01/19 08:33:18;;;;;;;34.60;6.10;;;;;;;17.25;100.00;99917.50;5049394;28;20029;-69
2023/01/19 08:35:47;;;;;;;36.80;6.05;;;;;;;17.27;100.00;99906.19;5050825;28;20036;-69
2023/01/19 08:38:13;;;;;;;31.23;6.53;;;;;;;17.16;100.00;99890.56;5049866;28;20171;-69
2023/01/19 08:40:40;;;;;;;31.17;6.85;;;;;;;17.11;100.00;99872.00;5050613;28;20174;-69
2023/01/19 08:43:12;;;;;;;32.95;6.65;;;;;;;17.09;100.00;99857.59;5047093;28;20079;-70
2023/01/19 08:45:44;;;;;;;32.17;5.90;;;;;;;16.64;100.00;99793.41;5051017;28;20037;-69
2023/01/19 08:48:09;;;;;;;34.25;6.15;;;;;;;17.12;100.00;99837.69;5050634;28;20067;-69
2023/01/19 08:50:34;;;;;;;35.25;8.07;;;;;;;17.48;100.00;99901.59;5051179;28;20040;-70
2023/01/19 08:53:02;;;;;;;37.65;7.43;;;;;;;17.12;100.00;99872.81;5051154;28;20060;-70
2023/01/19 08:55:28;;;;;;;32.95;6.88;;;;;;;17.50;100.00;99914.38;5049102;28;20059;-68
2023/01/19 08:58:02;;;;;;;39.95;6.65;;;;;;;17.17;100.00;99856.22;5048832;28;20028;-69
2023/01/19 09:00:30;;;;;;;33.40;6.20;;;;;;;17.63;100.00;99925.63;5047411;28;20192;-70
2023/01/19 09:02:56;;;;;;;35.78;6.15;;;;;;;17.73;100.00;99934.44;5049830;28;20021;-70
2023/01/19 09:05:22;;;;;;;34.65;5.78;;;;;;;17.67;100.00;99902.19;5049822;28;20044;-70
2023/01/19 09:07:48;;;;;;;27.98;6.20;;;;;;;17.58;100.00;99914.75;5047275;28;20037;-70
2023/01/19 09:10:14;;;;;;;25.95;5.72;;;;;;;17.29;100.00;99855.53;5044287;28;20554;-70
2023/01/19 09:12:40;;;;;;;26.42;5.78;;;;;;;17.27;100.00;99847.09;5043654;28;20735;-73
2023/01/19 09:15:06;;;;;;;27.92;5.20;;;;;;;17.66;100.00;99904.88;5043582;28;20496;-70
2023/01/19 09:17:32;;;;;;;24.58;5.00;;;;;;;17.46;100.00;99852.00;5073618;28;20037;-69
2023/01/19 09:19:58;;;;;;;31.48;5.38;;;;;;;17.79;100.00;99908.38;5049363;28;20111;-70
2023/01/19 09:22:23;;;;;;;26.30;4.57;;;;;;;17.66;100.00;99885.13;5046933;28;20044;-70
2023/01/19 09:24:49;;;;;;;29.05;5.15;;;;;;;17.48;100.00;99850.16;5041569;28;20486;-70
2023/01/19 09:27:14;;;;;;;31.75;4.72;;;;;;;17.58;100.00;99855.63;5042154;28;20136;-69
2023/01/19 09:29:40;;;;;;;26.00;4.57;;;;;;;17.93;100.00;99926.38;5046372;28;20108;-70
2023/01/19 09:32:09;;;;;;;33.78;4.95;;;;;;;17.97;100.00;99915.84;5044355;28;20610;-69
2023/01/19 09:34:35;;;;;;;30.42;5.70;;;;;;;17.95;100.00;99929.72;5048006;28;20032;-71
2023/01/19 09:37:00;;;;;;;26.10;5.00;;;;;;;17.62;100.00;99863.09;5050615;28;20090;-69
2023/01/19 09:39:26;;;;;;;28.98;5.05;;;;;;;18.07;100.00;99905.81;5050940;28;20024;-70
2023/01/19 09:42:17;;;;;;;23.20;4.97;;;;;;;18.14;100.00;99922.56;5050387;28;20033;-69
2023/01/19 09:44:45;;;;;;;30.15;5.53;;;;;;;18.17;100.00;99906.94;5044883;28;20110;-69
2023/01/19 09:47:18;;;;;;;27.90;4.80;;;;;;;18.09;100.00;99901.41;5049820;28;20037;-69
2023/01/19 09:49:50;;;;;;;28.83;4.97;;;;;;;17.89;100.00;99909.47;5046103;28;20040;-69
2023/01/19 09:52:17;;;;;;;31.02;5.90;;;;;;;18.15;100.00;99908.75;5048039;28;20040;-68
2023/01/19 09:54:51;;;;;;;25.95;4.78;;;;;;;18.20;100.00;99919.63;5046778;28;20021;-69
2023/01/19 09:57:17;;;;;;;29.52;4.78;;;;;;;17.70;100.00;99834.34;5041409;28;20134;-67
2023/01/19 09:59:46;;;;;;;21.13;4.53;;;;;;;17.84;100.00;99832.63;5048456;28;20127;-68
2023/01/19 10:02:17;;;;;;;26.05;4.82;;;;;;;18.40;100.00;99897.81;5049589;28;20514;-68
2023/01/19 10:05:21;;;;;;;25.10;4.78;;;;;;;18.30;100.00;99892.41;5046654;28;20080;-70
2023/01/19 10:08:17;;;;;;;23.85;4.72;;;;;;;18.68;100.00;99888.31;5027843;28;20115;-70
2023/01/19 10:10:50;;;;;;;23.33;3.78;;;;;;;18.04;100.00;99849.41;5049374;28;20514;-70
2023/01/19 10:13:47;;;;;;;20.02;4.10;;;;;;;18.47;100.00;99874.22;5047338;28;20065;-70
2023/01/19 10:16:45;;;;;;;24.15;4.40;;;;;;;18.45;100.00;99877.78;5048710;28;20044;-71
2023/01/19 10:19:26;;;;;;;29.13;4.30;;;;;;;18.64;100.00;99870.59;5042380;28;20108;-69
2023/01/19 10:21:54;;;;;;;18.73;4.03;;;;;;;18.28;100.00;99834.22;5047966;28;20029;-71
2023/01/19 10:24:32;;;;;;;23.23;4.10;;;;;;;18.49;100.00;99866.38;5048237;28;20484;-69
2023/01/19 10:26:57;;;;;;;26.67;4.57;;;;;;;18.28;100.00;99811.88;5046234;28;20025;-67
2023/01/19 10:29:36;;;;;;;28.50;4.90;;;;;;;18.26;100.00;99777.69;5047714;28;20553;-68
2023/01/19 10:32:16;;;;;;;21.65;4.03;;;;;;;18.57;100.00;99846.13;5048088;28;20025;-68
2023/01/19 10:34:41;;;;;;;24.48;4.53;;;;;;;18.54;100.00;99842.00;5049861;28;20411;-68
2023/01/19 10:37:16;;;;;;;25.13;4.78;;;;;;;18.82;100.00;99841.06;5048976;28;20029;-69
2023/01/19 10:39:44;;;;;;;33.55;4.50;;;;;;;18.51;100.00;99795.00;5049555;28;20039;-68
2023/01/19 10:42:14;;;;;;;26.08;5.07;;;;;;;18.15;100.00;99770.63;5049728;28;20102;-70
2023/01/19 10:44:40;;;;;;;24.45;4.43;;;;;;;18.70;100.00;99841.84;5050295;28;20029;-69
2023/01/19 10:47:15;;;;;;;27.02;4.80;;;;;;;18.74;100.00;99857.03;5049718;28;20033;-68
2023/01/19 10:49:44;;;;;;;26.85;4.05;;;;;;;18.61;100.00;99840.69;5049966;28;20029;-69
2023/01/19 10:52:38;;;;;;;24.23;5.20;;;;;;;18.67;100.00;99837.75;5047323;28;20067;-69
2023/01/19 10:55:07;;;;;;;22.40;4.85;;;;;;;18.23;100.00;99792.47;5048819;28;20033;-70
2023/01/19 10:57:39;;;;;;;25.20;4.85;;;;;;;18.11;100.00;99789.75;5049745;28;20021;-69
2023/01/19 11:00:26;;;;;;;27.40;4.63;;;;;;;18.14;100.00;99765.59;5053339;28;20041;-69
2023/01/19 11:02:51;;;;;;;27.75;4.45;;;;;;;18.58;100.00;99856.31;5048808;28;20021;-69
2023/01/19 11:05:22;;;;;;;25.35;4.35;;;;;;;18.50;100.00;99837.94;5053137;28;20446;-68
2023/01/19 11:07:47;;;;;;;22.50;3.85;;;;;;;18.65;100.00;99815.56;5051002;28;20025;-68
2023/01/19 11:10:16;;;;;;;21.08;4.25;;;;;;;18.77;100.00;99825.94;5052877;28;20105;-68
2023/01/19 11:12:46;;;;;;;29.27;5.03;;;;;;;18.45;100.00;99775.63;5053407;28;20029;-68
2023/01/19 11:15:20;;;;;;;20.75;4.22;;;;;;;18.68;100.00;99851.41;5048813;28;20033;-69
2023/01/19 11:17:49;;;;;;;25.33;4.47;;;;;;;18.77;100.00;99836.22;5049371;28;20033;-68
2023/01/19 11:20:32;;;;;;;23.95;4.03;;;;;;;18.42;100.00;99780.13;5050188;28;20032;-68
2023/01/19 11:23:15;;;;;;;23.23;4.00;;;;;;;18.69;100.00;99832.47;5051529;28;20028;-69
2023/01/19 11:25:45;;;;;;;24.98;4.55;;;;;;;18.71;100.00;99836.63;5050184;28;20100;-71
2023/01/19 11:28:25;;;;;;;25.83;4.50;;;;;;;18.70;100.00;99818.66;5047282;28;20067;-70
2023/01/19 11:31:01;;;;;;;25.02;4.47;;;;;;;18.83;100.00;99817.81;5040968;28;20033;-69
2023/01/19 11:33:41;;;;;;;19.35;3.90;;;;;;;18.76;100.00;99752.13;5047998;28;20029;-70